Time;durP1;ratioP1;P1;durP2;ratioP2;P2;SDS_P1;SDS_P2;PMS_P1;PMS_P2;Temp;Humidity;BMP_temperature;BMP_pressure;BME280_temperature;BME280_humidity;BME280_pressure;Samples;Min_cycle;Max_cycle;Signal;HPM_P1;HPM_P2
2023/02/28 00:00:58;;;;;;;7.22;3.90;;;1.20;99.90;;;;;;2044906;28;20020;-71
2023/02/28 00:01:58;;;;;;;6.47;4.65;;;1.20;99.90;;;;;;2046070;29;20031;-71
2023/02/28 00:02:59;;;;;;;7.85;4.07;;;1.30;99.90;;;;;;2045349;28;20019;-71
2023/02/28 00:04:00;;;;;;;6.35;4.32;;;1.30;99.90;;;;;;2045012;28;20031;-71
2023/02/28 00:05:03;;;;;;;6.22;3.95;;;1.40;99.90;;;;;;2045638;28;20024;-71
2023/02/28 00:06:05;;;;;;;5.63;4.15;;;1.40;99.90;;;;;;2044722;28;20464;-71
2023/02/28 00:07:06;;;;;;;5.47;4.50;;;1.40;99.90;;;;;;2045284;28;20031;-71
2023/02/28 00:08:07;;;;;;;5.95;3.58;;;1.40;99.90;;;;;;2044301;28;20490;-71
2023/02/28 00:09:07;;;;;;;6.10;3.92;;;1.50;99.90;;;;;;2038272;29;20107;-71
2023/02/28 00:10:11;;;;;;;4.55;3.53;;;1.50;99.90;;;;;;2038781;29;20028;-71
2023/02/28 00:11:14;;;;;;;5.22;3.53;;;1.50;99.90;;;;;;2035266;29;21270;-71
2023/02/28 00:12:14;;;;;;;4.93;3.95;;;1.60;99.90;;;;;;2036323;29;20043;-71
2023/02/28 00:13:15;;;;;;;6.18;3.88;;;1.60;99.90;;;;;;2044006;28;20023;-71
2023/02/28 00:14:15;;;;;;;5.25;3.50;;;1.60;99.90;;;;;;2045062;28;20015;-71
2023/02/28 00:15:17;;;;;;;3.83;2.88;;;1.60;99.90;;;;;;2045022;28;20031;-71
2023/02/28 00:16:20;;;;;;;4.53;3.65;;;1.60;99.90;;;;;;2036295;29;20427;-71
2023/02/28 00:17:21;;;;;;;6.75;3.70;;;1.60;99.90;;;;;;2034755;29;20036;-71
2023/02/28 00:18:22;;;;;;;5.45;3.75;;;1.60;99.90;;;;;;2044300;28;20026;-71
2023/02/28 00:19:22;;;;;;;4.93;4.18;;;1.70;99.90;;;;;;2044960;28;20027;-71
2023/02/28 00:20:23;;;;;;;5.22;3.90;;;1.70;99.90;;;;;;2045268;28;20090;-71
2023/02/28 00:21:24;;;;;;;7.53;3.63;;;1.70;99.90;;;;;;2044432;28;20065;-71
2023/02/28 00:22:24;;;;;;;5.55;3.90;;;1.70;99.90;;;;;;2045651;28;20028;-71
2023/02/28 00:23:26;;;;;;;5.20;4.07;;;1.70;99.90;;;;;;2045857;28;20031;-71
2023/02/28 00:24:27;;;;;;;4.97;3.42;;;1.70;99.90;;;;;;2045133;28;20067;-71
2023/02/28 00:25:27;;;;;;;5.57;3.75;;;1.70;99.90;;;;;;2044666;28;20035;-71
2023/02/28 00:26:28;;;;;;;4.82;3.53;;;1.70;99.90;;;;;;2044526;28;20103;-71
2023/02/28 00:27:28;;;;;;;5.22;3.70;;;1.70;99.90;;;;;;2045431;28;20487;-71
2023/02/28 00:28:29;;;;;;;6.50;3.92;;;1.70;99.90;;;;;;2045373;28;20027;-71
2023/02/28 00:29:30;;;;;;;5.88;3.42;;;1.70;99.90;;;;;;2043931;28;20114;-71
2023/02/28 00:30:30;;;;;;;5.22;3.85;;;1.70;99.90;;;;;;2044760;28;20024;-71
2023/02/28 00:31:31;;;;;;;7.07;4.43;;;1.70;99.90;;;;;;2044550;29;20052;-71
2023/02/28 00:32:31;;;;;;;4.13;3.70;;;1.70;99.90;;;;;;2042720;28;20031;-71
2023/02/28 00:33:32;;;;;;;5.07;3.50;;;1.70;99.90;;;;;;2044110;28;20030;-71
2023/02/28 00:34:37;;;;;;;6.10;4.00;;;1.70;99.90;;;;;;2043652;28;20027;-71
2023/02/28 00:35:37;;;;;;;6.18;3.90;;;1.80;99.90;;;;;;2043632;28;20016;-71
2023/02/28 00:36:38;;;;;;;8.13;3.63;;;1.80;99.90;;;;;;2044467;28;20030;-71
2023/02/28 00:37:39;;;;;;;4.53;3.65;;;1.80;99.90;;;;;;2043264;28;20020;-71
2023/02/28 00:38:40;;;;;;;4.53;3.42;;;1.80;99.90;;;;;;2044562;28;20752;-71
2023/02/28 00:39:41;;;;;;;7.03;4.25;;;1.80;99.90;;;;;;2043108;28;20095;-71
2023/02/28 00:40:42;;;;;;;5.57;3.70;;;1.80;99.90;;;;;;2045149;28;20091;-71
2023/02/28 00:41:43;;;;;;;4.50;3.67;;;1.80;99.90;;;;;;2043835;28;20035;-71
2023/02/28 00:42:43;;;;;;;7.15;3.60;;;1.80;99.90;;;;;;2044497;28;20035;-71
2023/02/28 00:43:44;;;;;;;4.78;3.60;;;1.80;99.90;;;;;;2036937;29;20087;-71
2023/02/28 00:44:44;;;;;;;4.07;3.47;;;1.80;99.90;;;;;;2028552;29;20036;-71
2023/02/28 00:45:45;;;;;;;6.38;3.78;;;1.80;99.90;;;;;;2036287;29;20509;-71
2023/02/28 00:46:45;;;;;;;5.13;3.35;;;1.80;99.90;;;;;;2045938;28;20408;-71
2023/02/28 00:47:49;;;;;;;5.35;3.70;;;1.80;99.90;;;;;;2044464;28;20038;-71
2023/02/28 00:48:49;;;;;;;4.85;3.60;;;1.80;99.90;;;;;;2045002;28;20028;-71
2023/02/28 00:49:50;;;;;;;5.78;3.63;;;1.80;99.90;;;;;;2046249;28;20027;-71
2023/02/28 00:50:50;;;;;;;4.95;3.25;;;1.80;99.90;;;;;;2046585;28;20019;-71
2023/02/28 00:51:52;;;;;;;5.40;3.78;;;1.80;99.90;;;;;;2046011;28;20074;-71
2023/02/28 00:52:52;;;;;;;4.75;3.60;;;1.80;99.90;;;;;;2044308;28;20047;-71
2023/02/28 00:53:53;;;;;;;4.72;3.50;;;1.80;99.90;;;;;;2046134;28;20519;-71
2023/02/28 00:54:53;;;;;;;4.05;3.30;;;1.80;99.90;;;;;;2045120;28;20043;-71
2023/02/28 00:55:54;;;;;;;4.07;3.63;;;1.80;99.90;;;;;;2045746;28;20050;-71
2023/02/28 00:56:54;;;;;;;4.53;3.55;;;1.70;99.90;;;;;;2045843;28;20614;-71
2023/02/28 00:57:55;;;;;;;4.40;3.60;;;1.70;99.90;;;;;;2045508;28;20060;-71
2023/02/28 00:58:55;;;;;;;5.95;3.80;;;1.80;99.90;;;;;;2043521;28;20024;-71
2023/02/28 00:59:56;;;;;;;5.93;3.47;;;1.80;99.90;;;;;;2042279;28;20058;-71
2023/02/28 01:00:56;;;;;;;5.85;3.35;;;1.80;99.90;;;;;;2044712;28;20039;-71
2023/02/28 01:01:57;;;;;;;5.25;3.40;;;1.70;99.90;;;;;;2044898;28;20074;-71
2023/02/28 01:02:57;;;;;;;6.43;3.78;;;1.80;99.90;;;;;;2044069;28;20657;-71
2023/02/28 01:03:58;;;;;;;5.88;3.90;;;1.80;99.90;;;;;;2044588;28;20023;-71
2023/02/28 01:04:58;;;;;;;4.63;3.80;;;1.70;99.90;;;;;;2045801;28;20019;-71
2023/02/28 01:05:59;;;;;;;4.82;3.72;;;1.70;99.90;;;;;;2044670;28;20107;-71
2023/02/28 01:06:59;;;;;;;4.97;3.53;;;1.80;99.90;;;;;;2045504;28;20023;-71
2023/02/28 01:08:00;;;;;;;4.97;3.83;;;1.80;99.90;;;;;;2042989;28;20446;-71
2023/02/28 01:09:00;;;;;;;5.88;3.47;;;1.80;99.90;;;;;;2044385;28;20375;-71
2023/02/28 01:10:01;;;;;;;4.80;3.55;;;1.80;99.90;;;;;;2043646;28;20398;-71
2023/02/28 01:11:14;;;;;;;5.45;3.63;;;1.70;99.90;;;;;;2043365;28;20031;-71
2023/02/28 01:12:15;;;;;;;3.78;3.13;;;1.70;99.90;;;;;;2044481;28;20023;-71
2023/02/28 01:13:16;;;;;;;5.50;3.75;;;1.70;99.90;;;;;;2045230;28;20109;-71
2023/02/28 01:14:17;;;;;;;6.45;3.90;;;1.70;99.90;;;;;;2044086;29;20023;-71
2023/02/28 01:15:18;;;;;;;4.35;3.45;;;1.70;99.90;;;;;;2034658;29;20151;-71
2023/02/28 01:16:19;;;;;;;6.18;3.58;;;1.70;99.90;;;;;;2035813;29;20028;-71
2023/02/28 01:17:19;;;;;;;3.78;3.38;;;1.70;99.90;;;;;;2044713;28;20186;-71
2023/02/28 01:18:20;;;;;;;4.15;3.38;;;1.70;99.90;;;;;;2043381;28;20032;-71
2023/02/28 01:19:21;;;;;;;5.20;3.42;;;1.70;99.90;;;;;;2042994;28;20627;-71
2023/02/28 01:20:21;;;;;;;5.50;3.90;;;1.70;99.90;;;;;;2044810;29;20101;-71
2023/02/28 01:21:22;;;;;;;6.43;3.80;;;1.70;99.90;;;;;;2043945;28;20023;-71
2023/02/28 01:22:23;;;;;;;4.70;3.63;;;1.70;99.90;;;;;;2045551;29;20161;-71
2023/02/28 01:23:24;;;;;;;6.63;3.70;;;1.70;99.90;;;;;;2044159;29;20065;-71
2023/02/28 01:24:24;;;;;;;4.47;3.70;;;1.60;99.90;;;;;;2045129;28;20119;-71
2023/02/28 01:25:25;;;;;;;4.88;3.90;;;1.70;99.90;;;;;;2044946;28;20031;-71
2023/02/28 01:26:25;;;;;;;6.45;3.42;;;1.60;99.90;;;;;;2045953;28;20027;-71
2023/02/28 01:27:26;;;;;;;6.07;4.07;;;1.60;99.90;;;;;;2043963;28;20020;-71
2023/02/28 01:28:27;;;;;;;7.53;3.88;;;1.60;99.90;;;;;;2037152;29;20055;-71
2023/02/28 01:29:27;;;;;;;7.13;3.90;;;1.60;99.90;;;;;;2035768;29;20032;-71
2023/02/28 01:30:28;;;;;;;5.30;3.75;;;1.60;99.90;;;;;;2042903;28;20022;-71
2023/02/28 01:31:28;;;;;;;6.93;3.67;;;1.60;99.90;;;;;;2045960;28;20038;-71
2023/02/28 01:32:29;;;;;;;3.90;3.50;;;1.60;99.90;;;;;;2043871;28;20020;-71
2023/02/28 01:33:29;;;;;;;5.18;3.30;;;1.60;99.90;;;;;;2043520;28;20024;-71
2023/02/28 01:34:30;;;;;;;4.38;3.60;;;1.60;99.90;;;;;;2044042;28;20507;-71
2023/02/28 01:35:35;;;;;;;4.00;3.28;;;1.60;99.90;;;;;;2043561;28;20031;-71
2023/02/28 01:36:36;;;;;;;5.40;3.65;;;1.60;99.90;;;;;;2045208;28;20028;-71
2023/02/28 01:37:36;;;;;;;5.40;3.47;;;1.60;99.90;;;;;;2043842;28;20027;-71
2023/02/28 01:38:37;;;;;;;4.47;3.63;;;1.50;99.90;;;;;;2045248;28;20036;-71
2023/02/28 01:39:37;;;;;;;3.85;3.40;;;1.50;99.90;;;;;;2034854;29;20046;-71
2023/02/28 01:40:38;;;;;;;4.35;3.20;;;1.50;99.90;;;;;;2034828;29;20075;-71
2023/02/28 01:41:39;;;;;;;5.65;3.65;;;1.50;99.90;;;;;;2045325;28;20034;-71
2023/02/28 01:42:40;;;;;;;4.85;3.25;;;1.50;99.90;;;;;;2042906;28;20055;-71
2023/02/28 01:43:43;;;;;;;4.18;3.40;;;1.50;99.90;;;;;;2044159;28;20510;-71
2023/02/28 01:45:01;;;;;;;5.65;3.80;;;1.50;99.90;;;;;;2044047;28;20035;-71
2023/02/28 01:46:02;;;;;;;5.25;3.22;;;1.40;99.90;;;;;;2045416;28;20652;-71
2023/02/28 01:47:02;;;;;;;6.95;3.63;;;1.40;99.90;;;;;;2044839;29;20488;-71
2023/02/28 01:48:07;;;;;;;5.43;3.72;;;1.40;99.90;;;;;;2043768;28;20024;-71
2023/02/28 01:49:15;;;;;;;4.75;3.53;;;1.40;99.90;;;;;;2045260;28;20023;-71
2023/02/28 01:50:20;;;;;;;5.30;3.67;;;1.40;99.90;;;;;;2045314;28;20015;-71
2023/02/28 01:51:46;;;;;;;3.50;3.20;;;1.30;99.90;;;;;;2043224;28;20140;-71
2023/02/28 01:52:48;;;;;;;5.57;3.70;;;1.30;99.90;;;;;;2044564;28;20032;-71
2023/02/28 01:53:54;;;;;;;4.63;3.42;;;1.30;99.90;;;;;;2044512;28;20559;-71
2023/02/28 01:54:58;;;;;;;4.80;3.90;;;1.30;99.90;;;;;;2033098;29;20036;-71
2023/02/28 01:55:58;;;;;;;4.13;3.42;;;1.30;99.90;;;;;;2033488;29;20782;-71
2023/02/28 01:57:07;;;;;;;3.88;3.42;;;1.30;99.90;;;;;;2045586;28;20391;-71
2023/02/28 01:58:08;;;;;;;4.22;3.33;;;1.30;99.90;;;;;;2045077;28;20371;-71
2023/02/28 01:59:10;;;;;;;4.40;3.42;;;1.20;99.90;;;;;;2045868;28;20024;-71
2023/02/28 02:00:15;;;;;;;4.40;3.83;;;1.20;99.90;;;;;;2041567;28;20024;-71
2023/02/28 02:01:21;;;;;;;4.78;3.90;;;1.20;99.90;;;;;;2044221;28;20032;-72
2023/02/28 02:02:23;;;;;;;3.92;3.45;;;1.20;99.90;;;;;;2044802;28;20023;-72
2023/02/28 02:03:24;;;;;;;4.63;3.45;;;1.10;99.90;;;;;;2044088;28;20437;-72
2023/02/28 02:04:31;;;;;;;4.90;3.88;;;1.10;99.90;;;;;;2042840;28;20031;-72
2023/02/28 02:05:33;;;;;;;6.82;3.60;;;1.10;99.90;;;;;;2043754;28;20034;-72
2023/02/28 02:06:45;;;;;;;4.50;3.60;;;1.10;99.90;;;;;;2045305;28;20963;-72
2023/02/28 02:07:49;;;;;;;6.55;3.55;;;1.00;99.90;;;;;;2043932;28;20070;-72
2023/02/28 02:08:50;;;;;;;6.20;3.95;;;1.00;99.90;;;;;;2043143;28;20404;-72
2023/02/28 02:10:00;;;;;;;4.28;3.47;;;1.00;99.90;;;;;;2044627;28;20087;-72
2023/02/28 02:11:02;;;;;;;4.90;3.60;;;1.00;99.90;;;;;;2044072;28;20020;-72
2023/02/28 02:12:24;;;;;;;7.07;3.75;;;1.00;99.90;;;;;;2044360;28;20031;-72
2023/02/28 02:13:43;;;;;;;3.67;3.38;;;0.90;99.90;;;;;;2045855;28;20020;-72
2023/02/28 02:15:08;;;;;;;6.72;3.53;;;0.90;99.90;;;;;;2044870;28;20023;-72
2023/02/28 02:16:46;;;;;;;4.63;3.97;;;0.90;99.90;;;;;;2042103;28;20031;-72
2023/02/28 02:17:50;;;;;;;3.38;3.03;;;0.80;99.90;;;;;;2044534;28;20055;-72
2023/02/28 02:19:08;;;;;;;5.10;3.65;;;0.80;99.90;;;;;;2044352;28;20034;-72
2023/02/28 02:20:46;;;;;;;4.72;3.50;;;0.80;99.90;;;;;;2044431;28;20116;-72
2023/02/28 02:22:21;;;;;;;3.83;3.30;;;0.80;99.90;;;;;;2044422;28;20023;-72
2023/02/28 02:23:48;;;;;;;3.90;2.90;;;0.70;99.90;;;;;;2045302;28;20535;-72
2023/02/28 02:25:08;;;;;;;4.28;3.47;;;0.60;99.90;;;;;;2045659;28;20036;-72
2023/02/28 02:26:41;;;;;;;5.15;3.60;;;0.60;99.90;;;;;;2044428;28;20023;-72
2023/02/28 02:28:18;;;;;;;4.13;3.15;;;0.60;99.90;;;;;;2035799;29;20065;-72
2023/02/28 02:30:01;;;;;;;4.93;3.35;;;0.60;99.90;;;;;;2044664;28;20102;-72
2023/02/28 02:31:24;;;;;;;4.78;3.22;;;0.60;99.90;;;;;;2043330;28;20110;-72
2023/02/28 02:32:43;;;;;;;5.15;3.17;;;0.60;99.90;;;;;;2043578;28;20126;-72
2023/02/28 02:34:06;;;;;;;4.68;3.63;;;0.50;99.90;;;;;;2044374;28;20043;-72
2023/02/28 02:35:15;;;;;;;4.95;3.22;;;0.50;99.90;;;;;;2044042;28;20043;-72
2023/02/28 02:36:24;;;;;;;4.47;3.08;;;0.50;99.90;;;;;;2044724;28;20118;-72
2023/02/28 02:37:58;;;;;;;4.20;3.55;;;0.50;99.90;;;;;;2045008;28;20032;-72
2023/02/28 02:39:05;;;;;;;6.07;3.47;;;0.50;99.90;;;;;;2043999;28;20086;-72
2023/02/28 02:40:31;;;;;;;3.90;3.10;;;0.50;99.90;;;;;;2046087;28;20070;-72
2023/02/28 02:42:05;;;;;;;3.90;3.33;;;0.50;99.90;;;;;;2045378;28;20047;-72
2023/02/28 02:43:37;;;;;;;3.90;3.20;;;0.40;99.90;;;;;;2039986;29;20033;-72
2023/02/28 02:44:48;;;;;;;4.90;3.38;;;0.30;99.90;;;;;;2046239;28;20154;-72
2023/02/28 02:45:56;;;;;;;5.85;3.50;;;0.40;99.90;;;;;;2047893;28;20039;-72
2023/02/28 02:47:10;;;;;;;4.90;3.65;;;0.30;99.90;;;;;;2043925;28;20031;-72
2023/02/28 02:48:15;;;;;;;4.80;3.80;;;0.30;99.90;;;;;;2046416;28;20022;-72
2023/02/28 02:49:27;;;;;;;3.88;2.90;;;0.30;99.90;;;;;;2045940;28;20032;-72
2023/02/28 02:50:43;;;;;;;5.07;3.60;;;0.30;99.90;;;;;;2045281;28;20054;-72
2023/02/28 02:51:46;;;;;;;6.10;3.80;;;0.30;99.90;;;;;;2045143;28;20020;-72
2023/02/28 02:52:53;;;;;;;4.32;3.90;;;0.30;99.90;;;;;;2043268;28;20031;-72
2023/02/28 02:54:15;;;;;;;4.43;4.03;;;0.30;99.90;;;;;;2045735;28;20896;-72
2023/02/28 02:55:18;;;;;;;4.28;3.67;;;0.30;99.90;;;;;;2045795;28;20031;-72
2023/02/28 02:56:22;;;;;;;3.85;3.50;;;0.20;99.90;;;;;;2046797;28;20027;-72
2023/02/28 02:57:29;;;;;;;4.97;3.55;;;0.20;99.90;;;;;;2044838;28;20024;-72
2023/02/28 02:58:35;;;;;;;7.63;4.05;;;0.20;99.90;;;;;;2046517;28;20030;-72
2023/02/28 02:59:38;;;;;;;4.18;3.00;;;0.30;99.90;;;;;;2045712;28;20086;-72
2023/02/28 03:00:43;;;;;;;6.97;3.95;;;0.20;99.90;;;;;;2044845;28;20043;-72
2023/02/28 03:01:43;;;;;;;5.70;3.40;;;0.20;99.90;;;;;;2045675;28;20042;-72
2023/02/28 03:02:46;;;;;;;5.25;3.78;;;0.20;99.90;;;;;;2036133;29;20038;-72
2023/02/28 03:03:47;;;;;;;4.20;3.80;;;0.20;99.90;;;;;;2038317;29;20039;-72
2023/02/28 03:04:53;;;;;;;3.85;3.50;;;0.20;99.90;;;;;;2036569;29;20123;-72
2023/02/28 03:05:59;;;;;;;5.35;3.53;;;0.20;99.90;;;;;;2035870;29;20039;-72
2023/02/28 03:07:00;;;;;;;5.57;3.67;;;0.20;99.90;;;;;;2044307;28;20039;-72
2023/02/28 03:08:05;;;;;;;5.25;3.55;;;0.20;99.90;;;;;;2044062;28;20490;-72
2023/02/28 03:09:05;;;;;;;6.93;3.80;;;0.20;99.90;;;;;;2046702;28;20027;-72
2023/02/28 03:10:29;;;;;;;4.32;3.60;;;0.20;99.90;;;;;;2045093;28;20087;-72
2023/02/28 03:11:30;;;;;;;4.10;3.63;;;0.10;99.90;;;;;;2045110;28;20050;-72
2023/02/28 03:12:42;;;;;;;5.63;3.17;;;0.10;99.90;;;;;;2044022;28;20046;-72
2023/02/28 03:13:46;;;;;;;5.38;3.55;;;0.10;99.90;;;;;;2045597;28;20035;-72
2023/02/28 03:15:20;;;;;;;5.43;3.78;;;0.10;99.90;;;;;;2045591;28;20038;-72
2023/02/28 03:16:33;;;;;;;5.70;3.45;;;0.10;99.90;;;;;;2045929;28;20027;-72
2023/02/28 03:18:10;;;;;;;4.43;3.92;;;0.00;99.90;;;;;;2045981;28;20070;-72
2023/02/28 03:19:19;;;;;;;3.00;2.70;;;0.00;99.90;;;;;;2044132;28;20027;-72
2023/02/28 03:20:45;;;;;;;3.40;3.08;;;0.00;99.90;;;;;;2045879;28;20603;-72
2023/02/28 03:22:06;;;;;;;3.88;3.30;;;-0.10;99.90;;;;;;2046714;28;20550;-72
2023/02/28 03:23:09;;;;;;;5.60;3.60;;;-0.10;99.90;;;;;;2046581;28;20038;-72
2023/02/28 03:24:18;;;;;;;6.15;3.75;;;-0.10;99.90;;;;;;2045559;28;20494;-72
2023/02/28 03:25:50;;;;;;;3.72;3.40;;;-0.10;99.90;;;;;;2044801;29;20041;-72
2023/02/28 03:26:56;;;;;;;3.17;2.70;;;-0.10;99.90;;;;;;2045550;28;20024;-72
2023/02/28 03:28:09;;;;;;;3.70;3.38;;;-0.10;99.90;;;;;;2045469;28;20031;-72
2023/02/28 03:29:20;;;;;;;4.05;3.20;;;-0.10;99.90;;;;;;2044159;28;20039;-72
2023/02/28 03:30:42;;;;;;;4.55;3.33;;;-0.10;99.90;;;;;;2045245;28;20032;-72
2023/02/28 03:31:54;;;;;;;6.28;3.38;;;-0.10;99.90;;;;;;2038428;29;20038;-72
2023/02/28 03:32:58;;;;;;;3.53;3.15;;;-0.20;99.90;;;;;;2040188;29;20106;-72
2023/02/28 03:34:06;;;;;;;5.43;3.60;;;-0.20;99.90;;;;;;2044879;28;20557;-72
2023/02/28 03:35:21;;;;;;;4.28;3.78;;;-0.10;99.90;;;;;;2046446;28;20115;-72
2023/02/28 03:36:36;;;;;;;6.32;3.33;;;-0.20;99.90;;;;;;2045363;28;20024;-72
2023/02/28 03:37:40;;;;;;;5.43;3.25;;;-0.20;99.90;;;;;;2048361;28;20031;-72
2023/02/28 03:38:48;;;;;;;3.40;3.10;;;-0.20;99.90;;;;;;2047088;28;20024;-72
2023/02/28 03:40:21;;;;;;;3.88;3.47;;;-0.20;99.90;;;;;;2043838;28;20091;-72
2023/02/28 03:41:28;;;;;;;3.95;3.10;;;-0.20;99.90;;;;;;2044864;28;20031;-72
2023/02/28 03:42:31;;;;;;;5.18;3.47;;;-0.20;99.90;;;;;;2045644;28;20417;-72
2023/02/28 03:43:35;;;;;;;4.00;3.40;;;-0.30;99.90;;;;;;2045138;28;20110;-72
2023/02/28 03:44:53;;;;;;;5.53;3.88;;;-0.20;99.90;;;;;;2045685;28;20432;-72
2023/02/28 03:45:56;;;;;;;4.97;3.33;;;-0.30;99.90;;;;;;2045040;28;20027;-72
2023/02/28 03:47:25;;;;;;;5.53;3.22;;;-0.20;99.90;;;;;;2043935;28;20047;-72
2023/02/28 03:48:39;;;;;;;4.50;3.05;;;-0.30;99.90;;;;;;2036028;29;20706;-72
2023/02/28 03:49:47;;;;;;;7.00;3.83;;;-0.30;99.90;;;;;;2038270;28;20412;-72
2023/02/28 03:50:53;;;;;;;7.10;3.83;;;-0.30;99.90;;;;;;2046162;29;20031;-72
2023/02/28 03:51:57;;;;;;;5.75;4.43;;;-0.30;99.90;;;;;;2045025;28;20114;-72
2023/02/28 03:53:07;;;;;;;4.18;3.75;;;-0.30;99.90;;;;;;2043604;28;20026;-72
2023/02/28 03:54:17;;;;;;;4.65;3.80;;;-0.30;99.90;;;;;;2046555;28;20471;-71
2023/02/28 03:55:18;;;;;;;;;;;-0.40;99.90;;;;;;2046100;28;20043;-72
2023/02/28 03:56:52;;;;;;;5.68;3.85;;;-0.50;99.90;;;;;;2035403;29;19910;-72
2023/02/28 03:58:07;;;;;;;5.55;3.70;;;-0.50;99.90;;;;;;2039860;28;20055;-72
2023/02/28 03:59:16;;;;;;;5.82;4.07;;;-0.50;99.90;;;;;;2044837;28;20023;-72
2023/02/28 04:00:28;;;;;;;5.32;3.75;;;-0.50;99.90;;;;;;2036520;29;20051;-72
2023/02/28 04:01:41;;;;;;;4.55;3.67;;;-0.50;99.90;;;;;;2038025;29;20030;-72
2023/02/28 04:02:42;;;;;;;5.25;3.92;;;-0.50;99.90;;;;;;2045463;28;20043;-72
2023/02/28 04:03:42;;;;;;;5.18;3.55;;;-0.50;99.90;;;;;;2035702;29;20038;-72
2023/02/28 04:04:48;;;;;;;4.82;3.60;;;-0.50;99.90;;;;;;2035973;29;20169;-72
2023/02/28 04:05:54;;;;;;;6.22;4.00;;;-0.50;99.90;;;;;;2046205;28;20042;-72
2023/02/28 04:07:06;;;;;;;6.65;3.63;;;-0.50;99.90;;;;;;2043391;28;20028;-72
2023/02/28 04:08:07;;;;;;;6.80;3.83;;;-0.50;99.90;;;;;;2044036;28;20128;-72
2023/02/28 04:09:12;;;;;;;3.30;3.00;;;-0.50;99.90;;;;;;2042650;28;20023;-71
2023/02/28 04:10:13;;;;;;;5.80;4.43;;;-0.50;99.90;;;;;;2043537;29;20020;-72
2023/02/28 04:11:25;;;;;;;4.32;3.85;;;-0.50;99.90;;;;;;2044520;28;20036;-72
2023/02/28 04:12:26;;;;;;;4.65;3.67;;;-0.50;99.90;;;;;;2044028;28;20051;-72
2023/02/28 04:13:26;;;;;;;5.20;3.58;;;-0.50;99.90;;;;;;2044793;28;20027;-72
2023/02/28 04:14:27;;;;;;;3.88;3.38;;;-0.50;99.90;;;;;;2035717;29;20031;-71
2023/02/28 04:15:27;;;;;;;4.55;3.50;;;-0.50;99.90;;;;;;2035527;29;20036;-72
2023/02/28 04:16:29;;;;;;;5.15;3.28;;;-0.50;99.90;;;;;;2045196;28;20110;-72
2023/02/28 04:17:30;;;;;;;3.95;3.20;;;-0.50;99.90;;;;;;2044325;28;20038;-72
2023/02/28 04:18:30;;;;;;;6.13;3.88;;;-0.50;99.90;;;;;;2045532;28;20066;-72
2023/02/28 04:19:30;;;;;;;4.80;3.47;;;-0.50;99.90;;;;;;2045288;28;20035;-72
2023/02/28 04:20:31;;;;;;;6.07;3.53;;;-0.50;99.90;;;;;;2043323;28;20055;-72
2023/02/28 04:21:52;;;;;;;5.15;3.72;;;-0.50;99.90;;;;;;2044242;28;20039;-72
2023/02/28 04:22:52;;;;;;;4.20;3.53;;;-0.50;99.90;;;;;;2045406;28;20499;-72
2023/02/28 04:23:53;;;;;;;5.47;4.00;;;-0.60;99.90;;;;;;2036987;29;21206;-72
2023/02/28 04:24:54;;;;;;;4.63;3.35;;;-0.50;99.90;;;;;;2036656;29;20032;-72
2023/02/28 04:25:55;;;;;;;4.70;3.55;;;-0.60;99.90;;;;;;2046906;28;20030;-72
2023/02/28 04:26:57;;;;;;;5.35;3.53;;;-0.60;99.90;;;;;;2040959;29;20026;-72
2023/02/28 04:27:58;;;;;;;3.47;3.15;;;-0.50;99.90;;;;;;2040511;29;20023;-72
2023/02/28 04:28:59;;;;;;;3.83;3.20;;;-0.60;99.90;;;;;;2044840;28;20040;-72
2023/02/28 04:30:00;;;;;;;3.88;3.28;;;-0.50;99.90;;;;;;2042440;28;20086;-72
2023/02/28 04:31:04;;;;;;;4.03;3.63;;;-0.60;99.90;;;;;;2045300;28;20031;-72
2023/02/28 04:32:04;;;;;;;5.55;4.07;;;-0.60;99.90;;;;;;2044140;29;20055;-72
2023/02/28 04:33:05;;;;;;;5.07;3.50;;;-0.60;99.90;;;;;;2046087;28;20142;-72
2023/02/28 04:34:06;;;;;;;3.25;2.97;;;-0.60;99.90;;;;;;2044626;29;20030;-72
2023/02/28 04:35:07;;;;;;;4.95;3.75;;;-0.60;99.90;;;;;;2044313;28;20038;-71
2023/02/28 04:36:08;;;;;;;3.58;3.22;;;-0.60;99.90;;;;;;2044542;28;20027;-72
2023/02/28 04:37:09;;;;;;;5.15;3.20;;;-0.60;99.90;;;;;;2045743;28;20064;-72
2023/02/28 04:38:09;;;;;;;3.55;3.25;;;-0.60;99.90;;;;;;2043955;28;20054;-72
2023/02/28 04:39:10;;;;;;;3.92;3.58;;;-0.60;99.90;;;;;;2045048;28;20423;-72
2023/02/28 04:40:10;;;;;;;4.90;3.60;;;-0.60;99.90;;;;;;2045242;28;20090;-72
2023/02/28 04:41:12;;;;;;;3.75;3.42;;;-0.70;99.90;;;;;;2043932;28;20036;-72
2023/02/28 04:42:13;;;;;;;4.68;3.30;;;-0.70;99.90;;;;;;2036554;29;20028;-72
2023/02/28 04:43:13;;;;;;;5.00;3.42;;;-0.70;99.90;;;;;;2035404;29;20024;-72
2023/02/28 04:44:14;;;;;;;3.42;3.10;;;-0.70;99.90;;;;;;2043419;28;20099;-72
2023/02/28 04:45:17;;;;;;;4.55;2.90;;;-0.70;99.90;;;;;;2046193;28;20026;-72
2023/02/28 04:46:18;;;;;;;3.63;3.33;;;-0.70;99.90;;;;;;2043418;28;20028;-72
2023/02/28 04:47:18;;;;;;;3.53;3.05;;;-0.70;99.90;;;;;;2045680;28;20038;-72
2023/02/28 04:48:19;;;;;;;3.20;3.00;;;-0.70;99.90;;;;;;2039943;29;20111;-72
2023/02/28 04:49:19;;;;;;;3.67;3.38;;;-0.70;99.90;;;;;;2039287;29;20097;-72
2023/02/28 04:50:20;;;;;;;3.70;3.40;;;-0.70;99.90;;;;;;2043986;28;20047;-72
2023/02/28 04:51:20;;;;;;;3.88;3.38;;;-0.70;99.90;;;;;;2044184;28;20032;-72
2023/02/28 04:52:21;;;;;;;4.38;2.95;;;-0.80;99.90;;;;;;2036912;29;20134;-71
2023/02/28 04:53:22;;;;;;;2.90;2.70;;;-0.80;99.90;;;;;;2036480;29;20020;-72
2023/02/28 04:54:22;;;;;;;5.63;3.30;;;-0.80;99.90;;;;;;2044741;28;20028;-72
2023/02/28 04:55:23;;;;;;;5.93;4.00;;;-0.80;99.90;;;;;;2044720;28;20059;-72
2023/02/28 04:56:23;;;;;;;4.90;3.25;;;-0.80;99.90;;;;;;2044920;28;20046;-71
2023/02/28 04:57:24;;;;;;;5.25;3.70;;;-0.80;99.90;;;;;;2045291;28;20032;-72
2023/02/28 04:58:25;;;;;;;3.83;3.05;;;-0.80;99.90;;;;;;2045864;28;20023;-72
2023/02/28 04:59:25;;;;;;;4.07;3.35;;;-0.80;99.90;;;;;;2046170;28;20031;-72
2023/02/28 05:00:26;;;;;;;3.42;3.13;;;-0.80;99.90;;;;;;2042856;28;20574;-72
2023/02/28 05:01:29;;;;;;;3.20;2.90;;;-0.80;99.90;;;;;;2043912;28;20110;-72
2023/02/28 05:02:29;;;;;;;3.60;3.30;;;-0.80;99.90;;;;;;2044599;28;20019;-72
2023/02/28 05:03:30;;;;;;;3.70;3.35;;;-0.80;99.90;;;;;;2044025;28;20023;-72
2023/02/28 05:04:33;;;;;;;4.50;3.20;;;-0.80;99.90;;;;;;2044737;28;20034;-72
2023/02/28 05:05:34;;;;;;;3.80;3.50;;;-0.90;99.90;;;;;;2044754;29;20031;-72
2023/02/28 05:06:34;;;;;;;4.75;3.63;;;-0.90;99.90;;;;;;2044474;28;20118;-72
2023/02/28 05:07:35;;;;;;;3.25;2.92;;;-0.90;99.90;;;;;;2044067;28;20027;-72
2023/02/28 05:08:35;;;;;;;3.92;3.20;;;-0.90;99.90;;;;;;2044396;28;20026;-72
2023/02/28 05:09:36;;;;;;;5.00;3.40;;;-0.90;99.90;;;;;;2043796;28;20036;-72
2023/02/28 05:10:37;;;;;;;3.58;3.20;;;-0.90;99.90;;;;;;2043317;29;20535;-71
2023/02/28 05:11:38;;;;;;;4.93;3.28;;;-0.90;99.90;;;;;;2044771;28;20037;-71
2023/02/28 05:12:39;;;;;;;4.95;3.20;;;-0.90;99.90;;;;;;2044089;28;20023;-71
2023/02/28 05:13:39;;;;;;;4.03;3.38;;;-0.90;99.90;;;;;;2044848;28;20546;-72
2023/02/28 05:14:40;;;;;;;5.32;3.60;;;-0.90;99.90;;;;;;2036707;29;20107;-72
2023/02/28 05:15:40;;;;;;;3.40;3.08;;;-0.90;99.90;;;;;;2036886;29;20115;-72
2023/02/28 05:16:41;;;;;;;4.70;3.35;;;-0.90;99.90;;;;;;2046331;28;20110;-72
2023/02/28 05:17:42;;;;;;;4.55;3.30;;;-1.00;99.90;;;;;;2044664;28;20023;-72
2023/02/28 05:18:43;;;;;;;4.18;3.72;;;-1.00;99.90;;;;;;2044148;28;20047;-71
2023/02/28 05:19:43;;;;;;;3.72;3.35;;;-1.00;99.90;;;;;;2044260;28;20035;-71
2023/02/28 05:20:44;;;;;;;4.32;2.97;;;-1.00;99.90;;;;;;2044939;28;20039;-71
2023/02/28 05:21:52;;;;;;;3.95;3.58;;;-1.00;99.90;;;;;;2044585;28;20051;-71
2023/02/28 05:22:52;;;;;;;3.05;2.78;;;-1.00;99.90;;;;;;2043661;28;20035;-71
2023/02/28 05:23:54;;;;;;;3.22;2.85;;;-1.00;99.90;;;;;;2044997;28;20031;-71
2023/02/28 05:24:54;;;;;;;3.85;2.95;;;-1.00;99.90;;;;;;2045866;28;20101;-71
2023/02/28 05:25:56;;;;;;;4.15;2.55;;;-1.10;99.90;;;;;;2041597;28;20031;-71
2023/02/28 05:26:56;;;;;;;4.57;3.22;;;-1.10;99.90;;;;;;2044444;28;20074;-72
2023/02/28 05:27:57;;;;;;;4.18;3.75;;;-1.10;99.90;;;;;;2045638;28;20031;-72
2023/02/28 05:28:57;;;;;;;3.25;2.85;;;-1.10;99.90;;;;;;2044276;28;20030;-72
2023/02/28 05:29:58;;;;;;;4.13;3.33;;;-1.10;99.90;;;;;;2044488;29;20027;-71
2023/02/28 05:30:59;;;;;;;3.45;3.13;;;-1.10;99.90;;;;;;2044209;28;20032;-72
2023/02/28 05:32:00;;;;;;;5.00;3.28;;;-1.10;99.90;;;;;;2043961;28;20059;-72
2023/02/28 05:33:00;;;;;;;3.75;2.88;;;-1.10;99.90;;;;;;2044552;28;20100;-72
2023/02/28 05:34:01;;;;;;;3.85;3.28;;;-1.10;99.90;;;;;;2044212;28;20488;-72
2023/02/28 05:35:02;;;;;;;7.18;3.35;;;-1.20;99.90;;;;;;2043534;28;20089;-72
2023/02/28 05:36:03;;;;;;;5.00;3.30;;;-1.10;99.90;;;;;;2043806;29;20031;-72
2023/02/28 05:37:05;;;;;;;3.90;3.13;;;-1.10;99.90;;;;;;2041882;28;20016;-72
2023/02/28 05:38:05;;;;;;;4.38;3.10;;;-1.10;99.90;;;;;;2042042;28;20051;-72
2023/02/28 05:39:15;;;;;;;6.40;4.00;;;-1.10;99.90;;;;;;2044026;28;20106;-72
2023/02/28 05:40:17;;;;;;;3.92;3.35;;;-1.20;99.90;;;;;;2043356;29;20023;-72
2023/02/28 05:41:19;;;;;;;3.92;3.22;;;-1.20;99.90;;;;;;2042920;28;20103;-72
2023/02/28 05:42:20;;;;;;;3.70;3.20;;;-1.20;99.90;;;;;;2043853;28;20020;-71
2023/02/28 05:43:20;;;;;;;5.55;3.53;;;-1.20;99.90;;;;;;2033993;29;20034;-71